Virtual Norwegian is not affiliated with Norwegian Air Shuttle in any way.
If you are looking for the real "Norwegian", or you wish to book Norwegian flights, please visit Norwegian.com


We use cookies to ensure you get the best experience on our website.   ACCEPT

EKBI - BLL - Billund (Billund)

General Info Alternate Airport
ICAO: EKBI Elevation: 247 ft ICAO: EKYT
IATA: BLL Country: Denmark IATA: AAL
City: Billund Charts: Log in to view charts City: Aalborg
Name: Billund Hub: No Name Aalborg
General Info
ICAO: EKBI
IATA: BLL
City: Billund
Name: Billund
Elevation: 247 ft
Country: Denmark
Charts: Log in to view charts
Hub: No
 
Alternate Airport
ICAO: EKYT
IATA: AAL
City: Aalborg
Name: Aalborg

Weather
121750Z AUTO 19002KT 9999NDV FEW031/// M02/M02 Q1003
Weather
121750Z AUTO 19002KT 9999NDV FEW031/// M02/M02 Q1003

Runway Info
09
Length ILS/LOC Course
3100 m 111.70 086
27
Length ILS/LOC Course
3100 m 110.70 266

NOTAMs
NOTAMs currently unavailable.
NOTAMs
NOTAMs currently unavailable

Route map
Airport
Airport (hub)